Logan Cache Airport
KLGU : rendu visible

Aérodrome :











RETROUVEZ-NOUS SUR...

 
LOGIN :

S'inscrire | Disclaimer

   EN    FR    IT 

 









Légende :    VFR   VFR Marginal   IFR   IFR Intensif   IFR Très Intensif
Visi : 
Plafond : 
>= 8 km
>= 3000ft
5 à 8 km
1000 à 3000 ft
1500m à 5 km
500 à 1000 ft
800 à 1500m
200 à 500 ft
< 800m
< 200 ft
Symboles :   Orages  Brouillard  Fortes neiges  Fortes précipitations  Vent > 20 kt






- Altitude de l'aérodrome : 4457 ft


KLGU - Logan Cache

DERNIER METAR :
  • 190251Z AUTO 09003KT 10SM CLR M04/M11 A3021 RMK AO2 SLP273 T10441106 55000

METARs EXPIRÉS :
  • 190151Z AUTO 00000KT 10SM CLR M03/M11 A3021 RMK AO2 SLP270 T10281106

TAF KLGU
Valide du 19 à 03h jusqu'au 20 à 00h UTC


190308Z 1903/1924 VRB04KT P6SM SCT100
FM190900 VRB04KT P6SM BCFG SCT007 SCT200
FM191600 34003KT P6SM FEW250



MET'MAP, la Météo Aéronautique d'un coup d'oeil ! - Copyright ORBIFLY Décembre 2007 - Disclaimer

ORBIFLY MET'MAP TEAM :

Programmation & Développement : Alexandra Zaïnal
Sur une idée originale de : Baudouin d'Aumeries
Assistance à la programmation : Marc-Olivier Méhu
Soutien technique & logistique : Manuel Goepfert

Contact : metmap@orbifly.com




SOURCES & CREDITS :

   NOAA       Earth
Advisory